Time;durP1;ratioP1;P1;durP2;ratioP2;P2;SDS_P1;SDS_P2;PMS_P1;PMS_P2;Temp;Humidity;BMP_temperature;BMP_pressure;BME280_temperature;BME280_humidity;BME280_pressure;Samples;Min_cycle;Max_cycle;Signal;HPM_P1;HPM_P2
2021/12/14 00:02:00;;;;;;;20.60;14.10;;;;;;;;;;5077743;28;20040;-70
2021/12/14 00:04:30;;;;;;;21.47;14.00;;;;;;;;;;5089324;28;20410;-71
2021/12/14 00:06:57;;;;;;;18.60;13.93;;;;;;;;;;5064654;28;20123;-71
2021/12/14 00:09:28;;;;;;;24.23;15.60;;;;;;;;;;5080151;28;20037;-70
2021/12/14 00:12:12;;;;;;;20.53;14.73;;;;;;;;;;5071365;28;20493;-70
2021/12/14 00:17:10;;;;;;;23.30;15.50;;;;;;;;;;5081285;28;20052;-70
2021/12/14 00:19:36;;;;;;;21.70;14.20;;;;;;;;;;5089325;28;20390;-70
2021/12/14 00:22:16;;;;;;;22.90;15.00;;;;;;;;;;5059816;28;20049;-70
2021/12/14 00:24:42;;;;;;;25.20;17.20;;;;;;;;;;5063611;28;20131;-71
2021/12/14 00:27:10;;;;;;;21.33;14.70;;;;;;;;;;5071234;28;20044;-70
2021/12/14 00:29:38;;;;;;;20.90;16.10;;;;;;;;;;5070532;28;20557;-70
2021/12/14 00:32:07;;;;;;;21.53;14.67;;;;;;;;;;5089510;28;20036;-70
2021/12/14 00:34:42;;;;;;;24.97;15.70;;;;;;;;;;5088043;28;20051;-70
2021/12/14 00:37:10;;;;;;;22.77;15.07;;;;;;;;;;5082728;28;20490;-71
2021/12/14 00:39:36;;;;;;;21.87;15.57;;;;;;;;;;5079303;28;20935;-70
2021/12/14 00:42:02;;;;;;;20.90;15.57;;;;;;;;;;5062781;28;20040;-70
2021/12/14 00:44:29;;;;;;;21.33;16.20;;;;;;;;;;5079171;28;20040;-70
2021/12/14 00:46:55;;;;;;;23.57;15.43;;;;;;;;;;5081896;28;20048;-70
2021/12/14 00:49:22;;;;;;;20.57;15.43;;;;;;;;;;5083941;28;20128;-71
2021/12/14 00:51:48;;;;;;;22.00;15.40;;;;;;;;;;5088050;28;20113;-70
2021/12/14 00:54:16;;;;;;;23.00;15.83;;;;;;;;;;5071459;28;20478;-70
2021/12/14 00:56:44;;;;;;;19.13;14.17;;;;;;;;;;5088422;28;20055;-70
2021/12/14 00:59:12;;;;;;;21.73;15.23;;;;;;;;;;5087419;28;20047;-71
2021/12/14 01:01:43;;;;;;;22.33;15.37;;;;;;;;;;5078633;28;20048;-70
2021/12/14 01:04:12;;;;;;;27.57;16.03;;;;;;;;;;5059553;28;20065;-70
2021/12/14 01:06:44;;;;;;;24.47;16.27;;;;;;;;;;5088522;28;20156;-71
2021/12/14 01:09:11;;;;;;;20.97;14.53;;;;;;;;;;5070327;28;20050;-70
2021/12/14 01:11:43;;;;;;;23.53;15.83;;;;;;;;;;5086756;28;20040;-70
2021/12/14 01:14:26;;;;;;;23.23;15.27;;;;;;;;;;5077495;28;20115;-71
2021/12/14 01:17:05;;;;;;;21.80;15.27;;;;;;;;;;5079509;28;20056;-71
2021/12/14 01:19:32;;;;;;;21.83;14.77;;;;;;;;;;5080602;28;20056;-70
2021/12/14 01:27:08;;;;;;;22.00;14.33;;;;;;;;;;5081020;28;20087;-70
2021/12/14 01:29:34;;;;;;;20.97;15.13;;;;;;;;;;5088200;28;20044;-70
2021/12/14 01:32:02;;;;;;;21.93;15.20;;;;;;;;;;5077126;28;20124;-70
2021/12/14 01:34:32;;;;;;;23.17;15.83;;;;;;;;;;5066045;28;20048;-70
2021/12/14 01:37:02;;;;;;;24.60;16.73;;;;;;;;;;5066895;28;20056;-70
2021/12/14 01:42:02;;;;;;;22.17;15.57;;;;;;;;;;5069334;28;20052;-70
2021/12/14 01:44:30;;;;;;;20.33;15.67;;;;;;;;;;5063915;28;20048;-70
2021/12/14 01:47:01;;;;;;;22.57;16.13;;;;;;;;;;5086739;28;20078;-71
2021/12/14 01:49:28;;;;;;;22.20;14.43;;;;;;;;;;5087805;28;20051;-70
2021/12/14 01:51:56;;;;;;;22.87;16.73;;;;;;;;;;5045248;28;20067;-71
2021/12/14 01:54:24;;;;;;;25.17;17.07;;;;;;;;;;5088025;28;20048;-71
2021/12/14 01:56:51;;;;;;;25.10;16.53;;;;;;;;;;5074187;28;20097;-70
2021/12/14 01:59:22;;;;;;;22.10;16.53;;;;;;;;;;5092484;28;20124;-70
2021/12/14 02:02:07;;;;;;;25.90;17.17;;;;;;;;;;5092240;28;20048;-70
2021/12/14 02:04:33;;;;;;;28.13;16.87;;;;;;;;;;5092027;28;20044;-70
2021/12/14 02:07:02;;;;;;;23.83;17.93;;;;;;;;;;5090890;28;20068;-70
2021/12/14 02:09:30;;;;;;;25.83;17.73;;;;;;;;;;5074677;28;20150;-70
2021/12/14 02:11:57;;;;;;;25.10;18.60;;;;;;;;;;5090899;28;20044;-70
2021/12/14 02:14:23;;;;;;;28.50;18.73;;;;;;;;;;5070043;28;20048;-70
2021/12/14 02:16:57;;;;;;;28.17;19.10;;;;;;;;;;5073698;28;20873;-70
2021/12/14 02:19:24;;;;;;;30.50;19.20;;;;;;;;;;5073999;28;20044;-70
2021/12/14 02:21:51;;;;;;;26.77;18.40;;;;;;;;;;5073748;28;20558;-70
2021/12/14 02:24:19;;;;;;;27.00;18.63;;;;;;;;;;5091467;28;20062;-70
2021/12/14 02:26:46;;;;;;;28.30;19.77;;;;;;;;;;5073682;28;20461;-70
2021/12/14 02:29:21;;;;;;;30.13;20.00;;;;;;;;;;5091238;28;20126;-70
2021/12/14 02:31:47;;;;;;;28.80;18.70;;;;;;;;;;5091297;28;20159;-69
2021/12/14 02:34:13;;;;;;;36.23;20.80;;;;;;;;;;5091374;28;20127;-70
2021/12/14 02:36:41;;;;;;;30.23;19.70;;;;;;;;;;5090788;28;20434;-70
2021/12/14 02:39:22;;;;;;;31.50;20.00;;;;;;;;;;5073666;28;20040;-70
2021/12/14 02:41:50;;;;;;;32.10;20.03;;;;;;;;;;5073127;28;20446;-70
2021/12/14 02:44:17;;;;;;;34.57;20.60;;;;;;;;;;5091407;28;20040;-70
2021/12/14 02:46:45;;;;;;;31.27;20.27;;;;;;;;;;5090410;28;20079;-70
2021/12/14 02:49:14;;;;;;;29.93;20.60;;;;;;;;;;5055968;28;20054;-70
2021/12/14 02:51:42;;;;;;;31.43;20.53;;;;;;;;;;5073081;28;20040;-70
2021/12/14 02:54:13;;;;;;;30.13;20.43;;;;;;;;;;5091048;28;20094;-70
2021/12/14 02:56:42;;;;;;;34.23;21.53;;;;;;;;;;5090872;28;20044;-70
2021/12/14 02:59:29;;;;;;;31.30;20.93;;;;;;;;;;5091297;28;20502;-70
2021/12/14 03:01:56;;;;;;;32.33;21.00;;;;;;;;;;5091227;28;20056;-70
2021/12/14 03:04:23;;;;;;;29.73;20.47;;;;;;;;;;5090943;28;20044;-70
2021/12/14 03:06:57;;;;;;;30.80;21.07;;;;;;;;;;5071852;28;20163;-70
2021/12/14 03:12:04;;;;;;;33.60;21.33;;;;;;;;;;5072893;28;20087;-70
2021/12/14 03:14:30;;;;;;;34.53;21.47;;;;;;;;;;5073000;28;20044;-71
2021/12/14 03:16:56;;;;;;;35.87;23.27;;;;;;;;;;5082466;28;20075;-70
2021/12/14 03:19:22;;;;;;;35.90;21.77;;;;;;;;;;5090857;28;20101;-71
2021/12/14 03:21:49;;;;;;;33.67;22.10;;;;;;;;;;5055366;28;20039;-70
2021/12/14 03:24:16;;;;;;;35.20;22.57;;;;;;;;;;5088914;28;20062;-70
2021/12/14 03:26:52;;;;;;;33.10;21.73;;;;;;;;;;5066063;28;20055;-70
2021/12/14 03:29:23;;;;;;;38.77;23.93;;;;;;;;;;5071867;28;20050;-71
2021/12/14 03:31:50;;;;;;;39.53;23.73;;;;;;;;;;5082538;28;20564;-70
2021/12/14 03:34:16;;;;;;;33.03;21.13;;;;;;;;;;5071669;28;20050;-70
2021/12/14 03:37:06;;;;;;;34.90;23.30;;;;;;;;;;5072221;28;20139;-70
2021/12/14 03:39:32;;;;;;;37.07;24.47;;;;;;;;;;5064301;28;20060;-70
2021/12/14 03:42:00;;;;;;;38.13;24.73;;;;;;;;;;5071658;28;20044;-70
2021/12/14 03:44:27;;;;;;;38.13;24.70;;;;;;;;;;5071720;28;20039;-70
2021/12/14 03:46:59;;;;;;;37.53;24.53;;;;;;;;;;5090010;28;20032;-70
2021/12/14 03:49:29;;;;;;;35.77;23.87;;;;;;;;;;5089574;28;20127;-71
2021/12/14 03:51:55;;;;;;;39.73;25.67;;;;;;;;;;5071717;28;20044;-70
2021/12/14 03:54:21;;;;;;;37.93;25.10;;;;;;;;;;5071914;28;20040;-70
2021/12/14 03:56:48;;;;;;;37.57;24.53;;;;;;;;;;5089367;28;20123;-70
2021/12/14 03:59:14;;;;;;;38.77;25.70;;;;;;;;;;5072038;28;20449;-71
2021/12/14 04:01:42;;;;;;;39.30;25.63;;;;;;;;;;5082034;28;20048;-70
2021/12/14 04:04:15;;;;;;;38.10;26.33;;;;;;;;;;5078101;28;20046;-71
2021/12/14 04:06:42;;;;;;;35.65;23.95;;;;;;;;;;5066533;28;20054;-70
2021/12/14 04:09:10;;;;;;;36.10;25.17;;;;;;;;;;5078086;28;20166;-70
2021/12/14 04:11:36;;;;;;;37.37;26.27;;;;;;;;;;5078908;28;20079;-70
2021/12/14 04:14:03;;;;;;;37.97;26.73;;;;;;;;;;5077116;28;20033;-70
2021/12/14 04:16:29;;;;;;;40.87;27.10;;;;;;;;;;5076883;28;20526;-70
2021/12/14 04:19:03;;;;;;;40.17;26.47;;;;;;;;;;5071026;28;20057;-70
2021/12/14 04:21:29;;;;;;;38.80;26.03;;;;;;;;;;5089229;28;20113;-70
2021/12/14 04:23:55;;;;;;;40.83;27.27;;;;;;;;;;5072989;28;20041;-69
2021/12/14 04:26:21;;;;;;;40.10;27.20;;;;;;;;;;5073454;28;20079;-70
2021/12/14 04:28:53;;;;;;;42.60;27.87;;;;;;;;;;5084554;28;20044;-70
2021/12/14 04:31:19;;;;;;;39.23;26.53;;;;;;;;;;5079637;28;20833;-70
2021/12/14 04:33:46;;;;;;;39.10;26.00;;;;;;;;;;5089245;28;20426;-70
2021/12/14 04:36:14;;;;;;;39.93;27.63;;;;;;;;;;5087191;28;20070;-69
2021/12/14 04:39:05;;;;;;;44.80;27.67;;;;;;;;;;5063947;28;20052;-70
2021/12/14 04:52:32;;;;;;;47.37;29.00;;;;;;;;;;5070817;28;20092;-70
2021/12/14 04:55:01;;;;;;;47.80;29.73;;;;;;;;;;5088775;28;20098;-70
2021/12/14 04:57:32;;;;;;;48.00;30.77;;;;;;;;;;5088361;28;20448;-70
2021/12/14 05:00:11;;;;;;;47.33;31.00;;;;;;;;;;5068939;28;20118;-71
2021/12/14 05:02:38;;;;;;;47.23;31.60;;;;;;;;;;5061240;28;20044;-70
2021/12/14 05:05:04;;;;;;;42.37;29.13;;;;;;;;;;5089361;28;20413;-70
2021/12/14 05:10:00;;;;;;;45.33;29.83;;;;;;;;;;5088761;28;20048;-70
2021/12/14 05:12:28;;;;;;;45.90;29.50;;;;;;;;;;5089308;28;20126;-70
2021/12/14 05:14:55;;;;;;;45.30;30.60;;;;;;;;;;5089242;28;20044;-70
2021/12/14 05:17:22;;;;;;;51.40;30.93;;;;;;;;;;5070378;28;20047;-70
2021/12/14 05:19:49;;;;;;;44.47;31.90;;;;;;;;;;5089004;28;20127;-71
2021/12/14 05:22:17;;;;;;;41.80;30.43;;;;;;;;;;5083782;28;20040;-70
2021/12/14 05:24:47;;;;;;;45.70;29.53;;;;;;;;;;5070231;28;20092;-70
2021/12/14 05:27:17;;;;;;;43.13;30.47;;;;;;;;;;5070463;28;20463;-70
2021/12/14 05:29:43;;;;;;;48.23;29.97;;;;;;;;;;5073274;28;20053;-70
2021/12/14 05:32:10;;;;;;;44.70;29.90;;;;;;;;;;5095456;28;20528;-70
2021/12/14 05:34:37;;;;;;;45.17;30.50;;;;;;;;;;5095197;28;20089;-70
2021/12/14 05:37:04;;;;;;;44.43;31.00;;;;;;;;;;5095001;28;20044;-70
2021/12/14 05:44:38;;;;;;;51.67;32.20;;;;;;;;;;5077413;28;20716;-70
2021/12/14 05:47:09;;;;;;;49.33;32.13;;;;;;;;;;5076283;28;20112;-70
2021/12/14 05:49:37;;;;;;;52.53;36.37;;;;;;;;;;5076666;28;20581;-70
2021/12/14 05:52:07;;;;;;;53.20;33.50;;;;;;;;;;5094242;28;20090;-70
2021/12/14 05:54:33;;;;;;;54.23;35.93;;;;;;;;;;5094903;28;20047;-70
2021/12/14 05:57:01;;;;;;;54.13;35.83;;;;;;;;;;5093979;28;20047;-70
2021/12/14 05:59:28;;;;;;;53.83;33.53;;;;;;;;;;5073259;28;20040;-70
2021/12/14 06:01:56;;;;;;;56.27;35.07;;;;;;;;;;5056051;28;20044;-70
2021/12/14 06:04:25;;;;;;;56.00;36.33;;;;;;;;;;5086151;28;20390;-70
2021/12/14 06:06:53;;;;;;;60.87;37.43;;;;;;;;;;5094840;28;20124;-70
2021/12/14 06:09:23;;;;;;;72.93;39.47;;;;;;;;;;5060247;28;20050;-70
2021/12/14 06:11:50;;;;;;;76.27;41.03;;;;;;;;;;5076668;28;20040;-70
2021/12/14 06:14:21;;;;;;;73.43;42.73;;;;;;;;;;5094678;28;20048;-70
2021/12/14 06:16:48;;;;;;;74.57;41.13;;;;;;;;;;5076155;28;20056;-70
2021/12/14 06:19:17;;;;;;;72.57;45.40;;;;;;;;;;5076872;28;20502;-71
2021/12/14 06:21:44;;;;;;;93.00;46.13;;;;;;;;;;5095196;28;20048;-71
2021/12/14 06:24:11;;;;;;;73.97;43.57;;;;;;;;;;5093996;28;20443;-70
2021/12/14 06:26:38;;;;;;;80.80;44.33;;;;;;;;;;5086525;28;20044;-71
2021/12/14 06:29:06;;;;;;;81.27;44.43;;;;;;;;;;5093948;28;20040;-70
2021/12/14 06:31:32;;;;;;;91.37;44.67;;;;;;;;;;5087658;28;20036;-71
2021/12/14 06:34:09;;;;;;;95.83;48.90;;;;;;;;;;5095248;28;20131;-71
2021/12/14 06:36:53;;;;;;;80.90;45.77;;;;;;;;;;5094801;28;20074;-71
2021/12/14 06:39:19;;;;;;;85.78;44.90;;;;;;;;;;5077020;28;20052;-70
2021/12/14 06:41:45;;;;;;;86.93;44.83;;;;;;;;;;5074200;28;20108;-70
2021/12/14 06:44:11;;;;;;;104.13;48.73;;;;;;;;;;5092006;28;20079;-71
2021/12/14 06:46:39;;;;;;;86.20;44.97;;;;;;;;;;5091398;28;20127;-71
2021/12/14 06:49:09;;;;;;;83.80;45.50;;;;;;;;;;5092032;28;20055;-71
2021/12/14 06:51:39;;;;;;;83.37;46.47;;;;;;;;;;5090791;28;20104;-71
2021/12/14 06:54:07;;;;;;;85.87;45.17;;;;;;;;;;5086887;28;20052;-71
2021/12/14 06:56:34;;;;;;;79.90;44.70;;;;;;;;;;5069667;28;20108;-71
2021/12/14 06:59:05;;;;;;;84.50;46.50;;;;;;;;;;5053415;28;20410;-71
2021/12/14 07:01:39;;;;;;;90.27;47.30;;;;;;;;;;5061787;28;20498;-71
2021/12/14 07:04:07;;;;;;;83.00;46.50;;;;;;;;;;5073154;28;20048;-71
2021/12/14 07:06:36;;;;;;;80.67;48.40;;;;;;;;;;5073094;28;20051;-71
2021/12/14 07:09:05;;;;;;;79.27;44.73;;;;;;;;;;5073475;28;20083;-70
2021/12/14 07:11:31;;;;;;;82.40;44.43;;;;;;;;;;5068015;28;20045;-70
2021/12/14 07:13:57;;;;;;;71.33;45.40;;;;;;;;;;5053658;28;20053;-70
2021/12/14 07:16:29;;;;;;;76.37;47.23;;;;;;;;;;5086203;28;20130;-70
2021/12/14 07:18:57;;;;;;;83.40;43.83;;;;;;;;;;5081879;28;20126;-70
2021/12/14 07:21:37;;;;;;;74.80;46.13;;;;;;;;;;5071063;28;20041;-70
2021/12/14 07:24:21;;;;;;;70.07;43.53;;;;;;;;;;5087557;28;20051;-70
2021/12/14 07:26:51;;;;;;;75.20;43.37;;;;;;;;;;5086578;28;20097;-70
2021/12/14 07:29:21;;;;;;;86.73;45.43;;;;;;;;;;5078182;28;20041;-71
2021/12/14 07:31:47;;;;;;;81.33;43.87;;;;;;;;;;5068024;28;20036;-70
2021/12/14 07:34:14;;;;;;;81.53;47.53;;;;;;;;;;5084262;28;20059;-70
2021/12/14 07:36:40;;;;;;;84.83;49.33;;;;;;;;;;5071835;28;20501;-71
2021/12/14 07:39:07;;;;;;;89.93;48.53;;;;;;;;;;5068729;28;20094;-70
2021/12/14 07:41:36;;;;;;;103.07;50.30;;;;;;;;;;5090554;28;20091;-70
2021/12/14 07:44:02;;;;;;;88.50;53.90;;;;;;;;;;5054213;28;20051;-70
2021/12/14 07:46:31;;;;;;;92.63;50.40;;;;;;;;;;5086657;28;20189;-71
2021/12/14 07:49:03;;;;;;;100.90;53.27;;;;;;;;;;5085330;28;20037;-71
2021/12/14 07:51:31;;;;;;;113.27;54.87;;;;;;;;;;5077923;28;20524;-71
2021/12/14 07:54:03;;;;;;;103.37;49.83;;;;;;;;;;5068370;28;20123;-70
2021/12/14 07:56:30;;;;;;;93.87;51.90;;;;;;;;;;5065765;28;20108;-71
2021/12/14 07:58:57;;;;;;;97.23;50.40;;;;;;;;;;5070405;28;20058;-71
2021/12/14 08:01:24;;;;;;;100.63;50.90;;;;;;;;;;5068002;28;20079;-71
2021/12/14 08:03:58;;;;;;;101.70;51.27;;;;;;;;;;5069175;28;20047;-71
2021/12/14 08:06:24;;;;;;;102.87;51.83;;;;;;;;;;5069119;28;20039;-71
2021/12/14 08:08:54;;;;;;;89.17;50.33;;;;;;;;;;5086193;28;20101;-71
2021/12/14 08:11:56;;;;;;;86.90;48.53;;;;;;;;;;5088262;28;20184;-71
2021/12/14 08:14:23;;;;;;;83.77;45.47;;;;;;;;;;5081363;28;20048;-70
2021/12/14 08:16:57;;;;;;;86.27;47.03;;;;;;;;;;5065194;28;20071;-71
2021/12/14 08:19:25;;;;;;;84.37;45.53;;;;;;;;;;5068206;28;20058;-71
2021/12/14 08:21:52;;;;;;;99.90;48.37;;;;;;;;;;5074840;28;20052;-71
2021/12/14 08:24:18;;;;;;;80.27;43.33;;;;;;;;;;5067090;28;20746;-71
2021/12/14 08:26:46;;;;;;;80.80;44.87;;;;;;;;;;5081111;28;20037;-71
2021/12/14 08:29:14;;;;;;;77.17;44.63;;;;;;;;;;5089097;28;20517;-71
2021/12/14 08:31:49;;;;;;;68.70;42.63;;;;;;;;;;5085181;28;20043;-71
2021/12/14 08:34:20;;;;;;;70.57;44.13;;;;;;;;;;5075600;28;20033;-71
2021/12/14 08:36:52;;;;;;;68.40;41.70;;;;;;;;;;5083883;28;20550;-71
2021/12/14 08:39:25;;;;;;;64.13;40.87;;;;;;;;;;5079811;28;20390;-71
2021/12/14 08:41:59;;;;;;;65.07;40.85;;;;;;;;;;5053992;28;20092;-70
2021/12/14 08:44:26;;;;;;;;;;;;;;;;;;5070827;28;20047;-71
2021/12/14 08:46:52;;;;;;;57.83;37.10;;;;;;;;;;5084955;28;20334;-71
2021/12/14 08:49:20;;;;;;;62.67;39.23;;;;;;;;;;5080579;28;20497;-71
2021/12/14 08:51:48;;;;;;;63.70;39.57;;;;;;;;;;5065436;28;20037;-71
2021/12/14 08:54:16;;;;;;;58.73;37.70;;;;;;;;;;5063114;28;20123;-71
2021/12/14 08:57:05;;;;;;;56.03;36.87;;;;;;;;;;5083096;28;20040;-71
2021/12/14 08:59:32;;;;;;;57.87;37.47;;;;;;;;;;5055309;28;20094;-71
2021/12/14 09:02:00;;;;;;;57.87;36.77;;;;;;;;;;5051111;28;20393;-71
2021/12/14 09:04:34;;;;;;;59.50;34.90;;;;;;;;;;5050442;28;20053;-71
2021/12/14 09:07:04;;;;;;;55.83;36.90;;;;;;;;;;5050674;28;20048;-70
2021/12/14 09:09:30;;;;;;;56.30;35.67;;;;;;;;;;5076879;28;20048;-71
2021/12/14 09:12:00;;;;;;;51.60;34.90;;;;;;;;;;5072543;28;20486;-71
2021/12/14 09:14:28;;;;;;;50.50;33.27;;;;;;;;;;5052443;28;20131;-70
2021/12/14 09:16:57;;;;;;;54.23;34.70;;;;;;;;;;5061284;28;20069;-71
2021/12/14 09:19:26;;;;;;;52.93;33.77;;;;;;;;;;5108347;28;20062;-70
2021/12/14 09:21:54;;;;;;;52.63;33.63;;;;;;;;;;5107872;28;20477;-70
2021/12/14 09:24:22;;;;;;;49.93;34.67;;;;;;;;;;5081033;28;20127;-71
2021/12/14 09:26:50;;;;;;;50.37;32.60;;;;;;;;;;5088771;28;20131;-71
2021/12/14 09:29:18;;;;;;;48.57;31.57;;;;;;;;;;5061680;28;20068;-71
2021/12/14 09:31:47;;;;;;;53.30;33.33;;;;;;;;;;5084653;28;20138;-71
2021/12/14 09:34:14;;;;;;;55.20;36.73;;;;;;;;;;5070154;28;20044;-70
2021/12/14 09:36:40;;;;;;;54.00;35.83;;;;;;;;;;5069359;28;20489;-71
2021/12/14 09:39:10;;;;;;;58.17;37.27;;;;;;;;;;5077395;28;20437;-71
2021/12/14 09:41:37;;;;;;;57.87;36.00;;;;;;;;;;5087990;28;20086;-71
2021/12/14 09:44:05;;;;;;;60.47;34.27;;;;;;;;;;5069968;28;20127;-71
2021/12/14 09:46:31;;;;;;;54.00;33.87;;;;;;;;;;5079621;28;20635;-71
2021/12/14 09:49:00;;;;;;;64.43;34.37;;;;;;;;;;5076232;28;20036;-70
2021/12/14 09:51:28;;;;;;;50.37;34.33;;;;;;;;;;5061583;28;20079;-70
2021/12/14 09:53:56;;;;;;;52.87;33.87;;;;;;;;;;5085441;28;20066;-71
2021/12/14 09:56:25;;;;;;;50.27;33.87;;;;;;;;;;5067216;28;20488;-70
2021/12/14 09:58:58;;;;;;;51.13;34.03;;;;;;;;;;5086303;28;20046;-71
2021/12/14 10:01:26;;;;;;;59.45;33.05;;;;;;;;;;5068357;28;20153;-70
2021/12/14 10:03:55;;;;;;;50.23;33.10;;;;;;;;;;5065370;28;20051;-70
2021/12/14 10:06:24;;;;;;;54.07;31.93;;;;;;;;;;5075295;28;20126;-70
2021/12/14 10:08:53;;;;;;;54.43;31.03;;;;;;;;;;5048644;28;20076;-70
2021/12/14 10:11:40;;;;;;;46.87;32.90;;;;;;;;;;5068188;28;20040;-71
2021/12/14 10:14:08;;;;;;;46.83;32.80;;;;;;;;;;5081952;28;20055;-70
2021/12/14 10:16:34;;;;;;;48.10;30.33;;;;;;;;;;5083958;28;20709;-70
2021/12/14 10:19:15;;;;;;;51.43;30.30;;;;;;;;;;5089849;28;20332;-70
2021/12/14 10:21:43;;;;;;;48.40;30.60;;;;;;;;;;5090816;28;20604;-70
2021/12/14 10:24:10;;;;;;;51.37;31.67;;;;;;;;;;5069611;28;20513;-70
2021/12/14 10:26:38;;;;;;;47.67;32.47;;;;;;;;;;5080392;28;20117;-70
2021/12/14 10:29:04;;;;;;;51.63;34.60;;;;;;;;;;5083611;28;20044;-71
2021/12/14 10:31:32;;;;;;;64.60;37.10;;;;;;;;;;5089860;28;20502;-70
2021/12/14 10:33:59;;;;;;;79.60;40.70;;;;;;;;;;5088975;28;20051;-71
2021/12/14 10:36:33;;;;;;;103.03;47.00;;;;;;;;;;5089158;28;20173;-70
2021/12/14 10:39:20;;;;;;;105.60;49.77;;;;;;;;;;5085081;28;20413;-71
2021/12/14 10:44:37;;;;;;;136.20;53.67;;;;;;;;;;5088076;28;20131;-71
2021/12/14 10:47:05;;;;;;;111.37;49.83;;;;;;;;;;5090370;28;20117;-71
2021/12/14 10:49:31;;;;;;;106.63;50.70;;;;;;;;;;5066166;28;20130;-72
2021/12/14 10:52:01;;;;;;;152.23;58.43;;;;;;;;;;5064214;28;20789;-71
2021/12/14 10:54:28;;;;;;;121.20;51.87;;;;;;;;;;5074522;28;20062;-72
2021/12/14 10:56:54;;;;;;;135.17;55.13;;;;;;;;;;5068282;28;20044;-72
2021/12/14 10:59:24;;;;;;;137.50;56.07;;;;;;;;;;5068693;28;20105;-71
2021/12/14 11:01:51;;;;;;;144.73;56.67;;;;;;;;;;5085936;28;20135;-72
2021/12/14 11:04:20;;;;;;;173.87;60.77;;;;;;;;;;5084229;28;20047;-72
2021/12/14 11:06:47;;;;;;;145.93;57.10;;;;;;;;;;5081894;28;20566;-72
2021/12/14 11:12:10;;;;;;;193.52;62.22;;;;;;;;;;5070946;28;20056;-71
2021/12/14 11:14:37;;;;;;;171.80;60.43;;;;;;;;;;5076198;28;20093;-71
2021/12/14 11:19:55;;;;;;;195.23;62.33;;;;;;;;;;5062581;28;20131;-71
2021/12/14 11:22:24;;;;;;;171.83;61.23;;;;;;;;;;5053492;28;20055;-71
2021/12/14 11:24:54;;;;;;;178.43;61.83;;;;;;;;;;5070917;28;20709;-71
2021/12/14 11:27:25;;;;;;;153.17;55.13;;;;;;;;;;5071077;28;20044;-71
2021/12/14 11:29:55;;;;;;;168.37;59.40;;;;;;;;;;5071030;28;20478;-71
2021/12/14 11:32:22;;;;;;;139.13;51.67;;;;;;;;;;5070549;28;20700;-70
2021/12/14 11:34:49;;;;;;;153.27;57.80;;;;;;;;;;5071995;28;20584;-70
2021/12/14 11:37:19;;;;;;;140.67;53.07;;;;;;;;;;5071456;28;20048;-70
2021/12/14 11:39:47;;;;;;;164.23;56.53;;;;;;;;;;5083450;28;20441;-70
2021/12/14 11:42:19;;;;;;;200.60;59.80;;;;;;;;;;5088702;28;20040;-70
2021/12/14 11:44:48;;;;;;;135.67;54.83;;;;;;;;;;5089003;28;20087;-70
2021/12/14 11:47:41;;;;;;;138.53;51.27;;;;;;;;;;5070494;28;20114;-70
2021/12/14 11:50:16;;;;;;;153.23;51.75;;;;;;;;;;5071025;28;20055;-70
2021/12/14 11:52:49;;;;;;;164.50;53.83;;;;;;;;;;5054459;28;20394;-70
2021/12/14 11:55:36;;;;;;;165.85;54.05;;;;;;;;;;5085781;28;20075;-70
2021/12/14 11:58:04;;;;;;;159.50;52.57;;;;;;;;;;5024800;28;20056;-70
2021/12/14 12:00:30;;;;;;;145.40;51.47;;;;;;;;;;5071174;28;20036;-70
2021/12/14 12:02:56;;;;;;;123.87;50.47;;;;;;;;;;5072161;28;20398;-70
2021/12/14 12:05:30;;;;;;;119.73;47.07;;;;;;;;;;5070592;28;20044;-70
2021/12/14 12:11:04;;;;;;;155.20;51.57;;;;;;;;;;5079967;28;20048;-70
2021/12/14 12:13:35;;;;;;;134.57;47.85;;;;;;;;;;5062587;28;20521;-70
2021/12/14 12:16:09;;;;;;;140.20;49.03;;;;;;;;;;5061391;28;20821;-70
2021/12/14 12:18:35;;;;;;;125.73;48.30;;;;;;;;;;5070325;28;20066;-70
2021/12/14 12:21:01;;;;;;;148.97;50.57;;;;;;;;;;5089488;28;20037;-70
2021/12/14 12:23:28;;;;;;;124.57;46.43;;;;;;;;;;5070462;28;20040;-70
2021/12/14 12:25:59;;;;;;;120.90;45.77;;;;;;;;;;5069991;28;20054;-70
2021/12/14 12:28:25;;;;;;;116.67;44.67;;;;;;;;;;5070918;28;20109;-70
2021/12/14 12:30:51;;;;;;;143.37;48.67;;;;;;;;;;5061373;28;20087;-70
2021/12/14 12:33:24;;;;;;;117.37;45.50;;;;;;;;;;5070946;28;20056;-70
2021/12/14 12:36:00;;;;;;;106.17;42.60;;;;;;;;;;5069254;28;20044;-70
2021/12/14 12:38:31;;;;;;;102.23;41.53;;;;;;;;;;5088521;28;20074;-70
2021/12/14 12:41:04;;;;;;;107.83;42.53;;;;;;;;;;5083444;28;20046;-70
2021/12/14 12:43:33;;;;;;;89.03;42.13;;;;;;;;;;5088086;28;20059;-70
2021/12/14 12:46:02;;;;;;;149.53;48.23;;;;;;;;;;5070854;28;21222;-70
2021/12/14 12:48:42;;;;;;;95.03;42.50;;;;;;;;;;5089253;28;20045;-70
2021/12/14 12:51:08;;;;;;;136.47;46.53;;;;;;;;;;5088575;28;20032;-70
2021/12/14 12:53:34;;;;;;;110.47;44.10;;;;;;;;;;5088859;28;20059;-70
2021/12/14 12:56:08;;;;;;;122.47;45.13;;;;;;;;;;5069628;28;20547;-70
2021/12/14 12:58:37;;;;;;;114.03;46.17;;;;;;;;;;5070190;28;20461;-70
2021/12/14 13:01:04;;;;;;;118.43;47.63;;;;;;;;;;5069807;28;20074;-70
2021/12/14 13:03:36;;;;;;;112.87;47.03;;;;;;;;;;5070542;28;20136;-70
2021/12/14 13:06:04;;;;;;;117.33;49.20;;;;;;;;;;5088099;28;20040;-70
2021/12/14 13:08:35;;;;;;;102.40;43.60;;;;;;;;;;5070078;28;20056;-70
2021/12/14 13:11:10;;;;;;;115.83;47.93;;;;;;;;;;5087610;28;20043;-70
2021/12/14 13:13:41;;;;;;;130.63;48.37;;;;;;;;;;5069808;28;20413;-70
2021/12/14 13:16:20;;;;;;;123.33;48.57;;;;;;;;;;5088588;28;20052;-70
2021/12/14 13:18:46;;;;;;;148.63;48.43;;;;;;;;;;5070202;28;20414;-70
2021/12/14 13:21:12;;;;;;;156.03;53.20;;;;;;;;;;5070766;28;20044;-70
2021/12/14 13:23:40;;;;;;;132.33;49.20;;;;;;;;;;5068464;28;20520;-70
2021/12/14 13:26:26;;;;;;;122.97;46.93;;;;;;;;;;5069766;28;20078;-70
2021/12/14 13:28:53;;;;;;;128.00;49.30;;;;;;;;;;5059279;28;20458;-70
2021/12/14 13:31:43;;;;;;;149.03;51.37;;;;;;;;;;5070505;28;20551;-70
2021/12/14 13:34:12;;;;;;;159.77;54.03;;;;;;;;;;5061434;28;20389;-70
2021/12/14 13:36:39;;;;;;;158.63;53.67;;;;;;;;;;5070255;28;20051;-70
2021/12/14 13:39:06;;;;;;;192.00;55.70;;;;;;;;;;5069654;28;20044;-69
2021/12/14 13:41:41;;;;;;;154.30;55.13;;;;;;;;;;5069446;28;20044;-70
2021/12/14 13:44:07;;;;;;;145.33;52.93;;;;;;;;;;5067685;28;20467;-70
2021/12/14 13:46:34;;;;;;;137.17;51.60;;;;;;;;;;5088045;28;20094;-70
2021/12/14 13:49:00;;;;;;;154.83;52.40;;;;;;;;;;5069405;28;20040;-70
2021/12/14 13:51:29;;;;;;;171.13;53.87;;;;;;;;;;5072217;28;20435;-70
2021/12/14 13:53:56;;;;;;;162.37;50.93;;;;;;;;;;5073994;28;20047;-70
2021/12/14 13:56:27;;;;;;;143.50;51.10;;;;;;;;;;5090532;28;20056;-70
2021/12/14 13:58:56;;;;;;;148.63;48.90;;;;;;;;;;5059608;28;20072;-69
2021/12/14 14:01:25;;;;;;;147.30;51.10;;;;;;;;;;5092214;28;20055;-70
2021/12/14 14:03:57;;;;;;;161.57;52.43;;;;;;;;;;5072944;28;20100;-69
2021/12/14 14:06:24;;;;;;;153.48;52.45;;;;;;;;;;5071621;28;20079;-70
2021/12/14 14:08:53;;;;;;;175.47;55.53;;;;;;;;;;5091362;28;20192;-69
2021/12/14 14:11:27;;;;;;;158.73;53.17;;;;;;;;;;5090937;28;20075;-69
2021/12/14 14:13:55;;;;;;;144.03;53.33;;;;;;;;;;5091597;28;20490;-69
2021/12/14 14:16:22;;;;;;;151.33;50.40;;;;;;;;;;5091828;28;20056;-70
2021/12/14 14:18:50;;;;;;;148.30;53.23;;;;;;;;;;5070800;28;20127;-69
2021/12/14 14:21:17;;;;;;;196.97;57.27;;;;;;;;;;5071807;28;20041;-70
2021/12/14 14:23:51;;;;;;;148.43;51.73;;;;;;;;;;5053746;28;20044;-69
2021/12/14 14:26:34;;;;;;;189.10;54.60;;;;;;;;;;5073092;28;20123;-69
2021/12/14 14:29:14;;;;;;;171.00;53.33;;;;;;;;;;5091656;28;20512;-69
2021/12/14 14:31:45;;;;;;;143.10;51.97;;;;;;;;;;5072493;28;20044;-70
2021/12/14 14:34:20;;;;;;;147.13;50.60;;;;;;;;;;5073197;28;20067;-69
2021/12/14 14:36:54;;;;;;;142.23;52.33;;;;;;;;;;5072071;28;20098;-69
2021/12/14 14:39:22;;;;;;;170.70;54.93;;;;;;;;;;5071982;28;20047;-69
2021/12/14 14:41:58;;;;;;;146.87;50.67;;;;;;;;;;5089921;28;20047;-69
2021/12/14 14:44:30;;;;;;;147.60;50.70;;;;;;;;;;5072831;28;20143;-69
2021/12/14 14:47:15;;;;;;;135.43;49.73;;;;;;;;;;5091075;28;20051;-69
2021/12/14 14:49:41;;;;;;;197.00;55.57;;;;;;;;;;5072216;28;20050;-69
2021/12/14 14:52:13;;;;;;;148.03;52.17;;;;;;;;;;5073167;28;20048;-69
2021/12/14 14:54:41;;;;;;;168.53;54.23;;;;;;;;;;5070365;28;20463;-69
2021/12/14 14:57:07;;;;;;;158.73;51.10;;;;;;;;;;5072366;28;20036;-69
2021/12/14 14:59:34;;;;;;;147.13;51.00;;;;;;;;;;5073001;28;20051;-69
2021/12/14 15:02:00;;;;;;;153.33;50.40;;;;;;;;;;5071386;28;20040;-69
2021/12/14 15:04:26;;;;;;;153.73;50.17;;;;;;;;;;5072492;28;20413;-69
2021/12/14 15:06:53;;;;;;;190.53;57.57;;;;;;;;;;5072109;28;20047;-69
2021/12/14 15:09:26;;;;;;;177.10;54.47;;;;;;;;;;5072294;28;20055;-69
2021/12/14 15:11:55;;;;;;;193.77;57.25;;;;;;;;;;5091079;28;20044;-69